createdAt,value
2023-03-05T00:01:32.150Z,8.10
2023-03-05T00:04:01.332Z,9.10
2023-03-05T00:06:30.733Z,8.10
2023-03-05T00:08:59.469Z,8.50
2023-03-05T00:11:30.152Z,9.50
2023-03-05T00:13:59.128Z,8.20
2023-03-05T00:16:28.953Z,10.10
2023-03-05T00:18:58.874Z,8.00
2023-03-05T00:21:30.334Z,8.00
2023-03-05T00:24:01.095Z,7.80
2023-03-05T00:26:30.653Z,8.50
2023-03-05T00:28:59.143Z,7.50
2023-03-05T00:31:30.856Z,7.40
2023-03-05T00:34:01.826Z,9.10
2023-03-05T00:36:30.796Z,8.30
2023-03-05T00:38:59.205Z,7.50
2023-03-05T00:41:27.580Z,7.70
2023-03-05T00:43:55.615Z,7.20
2023-03-05T00:46:24.608Z,7.90
2023-03-05T00:48:52.674Z,8.00
2023-03-05T00:51:21.396Z,7.40
2023-03-05T00:53:49.349Z,9.70
2023-03-05T00:56:18.922Z,7.90
2023-03-05T00:58:47.188Z,8.30
2023-03-05T01:01:15.633Z,8.10
2023-03-05T01:03:43.898Z,8.90
2023-03-05T01:06:15.237Z,8.30
2023-03-05T01:08:44.238Z,8.80
2023-03-05T01:11:13.014Z,7.70
2023-03-05T01:13:41.291Z,9.60
2023-03-05T01:16:09.657Z,10.90
2023-03-05T01:18:39.059Z,12.00
2023-03-05T01:21:07.979Z,12.10
2023-03-05T01:23:37.554Z,13.30
2023-03-05T01:26:06.718Z,14.60
2023-03-05T01:28:34.921Z,18.80
2023-03-05T01:31:06.667Z,29.50
2023-03-05T01:33:34.748Z,29.60
2023-03-05T01:36:06.482Z,28.00
2023-03-05T01:38:34.435Z,26.80
2023-03-05T01:41:02.393Z,25.00
2023-03-05T01:43:31.403Z,19.80
2023-03-05T01:46:38.504Z,19.50
2023-03-05T01:49:26.249Z,15.10
2023-03-05T01:51:56.781Z,8.30
2023-03-05T01:54:42.154Z,9.80
2023-03-05T01:57:15.038Z,6.60
2023-03-05T01:59:46.291Z,6.20
2023-03-05T02:02:15.006Z,7.50
2023-03-05T02:04:46.840Z,8.20
2023-03-05T02:07:16.695Z,7.50
2023-03-05T02:09:44.967Z,7.00
2023-03-05T02:12:14.127Z,8.50
2023-03-05T02:14:44.393Z,7.90
2023-03-05T02:17:13.004Z,9.50
2023-03-05T02:20:14.483Z,8.70
2023-03-05T02:22:42.468Z,8.50
2023-03-05T02:25:20.792Z,9.50
2023-03-05T02:28:09.472Z,9.00
2023-03-05T02:30:38.697Z,10.00
2023-03-05T02:33:06.976Z,10.00
2023-03-05T02:35:35.001Z,10.50
2023-03-05T02:38:03.956Z,10.10
2023-03-05T02:40:32.327Z,10.80
2023-03-05T02:43:00.380Z,10.40
2023-03-05T02:45:28.820Z,10.90
2023-03-05T02:47:57.146Z,13.70
2023-03-05T02:50:27.584Z,12.80
2023-03-05T02:52:55.883Z,12.00
2023-03-05T02:55:24.608Z,16.50
2023-03-05T02:57:52.581Z,18.70
2023-03-05T03:00:21.151Z,14.00
2023-03-05T03:02:49.145Z,13.10
2023-03-05T03:05:17.340Z,12.90
2023-03-05T03:07:45.402Z,15.30
2023-03-05T03:10:13.682Z,16.80
2023-03-05T03:12:44.042Z,15.40
2023-03-05T03:15:15.041Z,18.40
2023-03-05T03:17:43.422Z,20.50
2023-03-05T03:20:15.141Z,17.20
2023-03-05T03:22:45.381Z,14.70
2023-03-05T03:25:23.349Z,13.60
2023-03-05T03:27:53.216Z,14.20
2023-03-05T03:30:21.233Z,13.90
2023-03-05T03:32:51.483Z,11.20
2023-03-05T03:35:19.710Z,8.40
2023-03-05T03:37:47.887Z,7.90
2023-03-05T03:40:15.918Z,7.60
2023-03-05T03:42:43.997Z,7.10
2023-03-05T03:45:12.623Z,8.50
2023-03-05T03:47:40.596Z,10.70
2023-03-05T03:50:09.294Z,11.30
2023-03-05T03:52:37.486Z,11.60
2023-03-05T03:55:05.839Z,9.30
2023-03-05T03:57:33.878Z,10.00
2023-03-05T04:00:01.925Z,9.40
2023-03-05T04:02:40.239Z,10.10
2023-03-05T04:05:09.048Z,9.70
2023-03-05T04:07:37.085Z,10.40
2023-03-05T04:10:05.995Z,10.90
2023-03-05T04:12:34.046Z,10.10
2023-03-05T04:15:02.119Z,9.90
2023-03-05T04:17:30.187Z,9.20
2023-03-05T04:19:58.259Z,8.60
2023-03-05T04:22:26.431Z,9.40
2023-03-05T04:24:54.502Z,7.90
2023-03-05T04:27:22.676Z,8.90
2023-03-05T04:29:50.644Z,8.50
2023-03-05T04:32:23.302Z,8.70
2023-03-05T04:34:51.513Z,9.20
2023-03-05T04:37:19.437Z,9.60
2023-03-05T04:39:47.455Z,6.20
2023-03-05T04:42:15.596Z,7.20
2023-03-05T04:44:43.668Z,10.70
2023-03-05T04:47:11.663Z,11.50
2023-03-05T04:49:39.804Z,12.20
2023-03-05T04:52:07.877Z,8.00
2023-03-05T04:54:35.838Z,7.70
2023-03-05T04:57:04.019Z,6.50
2023-03-05T04:59:32.417Z,4.70
2023-03-05T05:02:00.526Z,4.20
2023-03-05T05:04:28.741Z,6.90
2023-03-05T05:06:57.758Z,6.40
2023-03-05T05:09:26.266Z,8.10
2023-03-05T05:11:54.621Z,8.20
2023-03-05T05:14:22.849Z,9.40
2023-03-05T05:16:51.028Z,6.90
2023-03-05T05:19:19.001Z,4.90
2023-03-05T05:21:47.132Z,3.90
2023-03-05T05:24:15.034Z,4.10
2023-03-05T05:26:43.063Z,3.60
2023-03-05T05:29:11.217Z,4.30
2023-03-05T05:31:39.230Z,4.40
2023-03-05T05:34:07.360Z,4.50
2023-03-05T05:36:35.319Z,3.90
2023-03-05T05:39:04.037Z,3.60
2023-03-05T05:41:32.062Z,4.10
2023-03-05T05:44:00.134Z,5.40
2023-03-05T05:46:29.213Z,4.80
2023-03-05T05:48:57.185Z,5.20
2023-03-05T05:51:25.574Z,4.70
2023-03-05T05:53:53.760Z,5.50
2023-03-05T05:56:21.964Z,4.60
2023-03-05T05:58:50.402Z,3.70
2023-03-05T06:01:23.093Z,4.70
2023-03-05T06:03:51.869Z,5.30
2023-03-05T06:06:22.216Z,3.10
2023-03-05T06:08:51.061Z,5.40
2023-03-05T06:11:19.962Z,8.90
2023-03-05T06:13:49.047Z,7.40
2023-03-05T06:16:20.678Z,6.90
2023-03-05T06:18:48.764Z,6.10
2023-03-05T06:21:18.583Z,6.50
2023-03-05T06:23:47.813Z,5.90
2023-03-05T06:26:18.929Z,4.60
2023-03-05T06:28:47.109Z,5.00
2023-03-05T06:31:18.009Z,5.50
2023-03-05T06:33:46.117Z,5.80
2023-03-05T06:36:17.168Z,5.40
2023-03-05T06:38:45.137Z,5.20
2023-03-05T06:41:16.788Z,4.70
2023-03-05T06:43:46.708Z,5.10
2023-03-05T06:46:19.566Z,5.40
2023-03-05T06:48:48.479Z,5.70
2023-03-05T06:51:19.076Z,4.40
2023-03-05T06:53:49.479Z,5.70
2023-03-05T06:56:19.364Z,6.30
2023-03-05T06:58:50.749Z,5.80
2023-03-05T07:01:20.591Z,8.50
2023-03-05T07:03:50.825Z,6.50
2023-03-05T07:06:18.981Z,8.70
2023-03-05T07:08:47.214Z,5.90
2023-03-05T07:11:20.496Z,14.50
2023-03-05T07:13:49.595Z,10.10
2023-03-05T07:16:29.257Z,5.20
2023-03-05T07:18:59.118Z,4.90
2023-03-05T07:21:29.188Z,5.80
2023-03-05T07:23:59.292Z,7.90
2023-03-05T07:26:28.646Z,5.20
2023-03-05T07:28:57.230Z,5.00
2023-03-05T07:31:32.227Z,5.60
2023-03-05T07:34:03.206Z,6.90
2023-03-05T07:36:31.804Z,6.00
2023-03-05T07:38:59.868Z,6.20
2023-03-05T07:41:27.853Z,8.70
2023-03-05T07:43:55.927Z,8.80
2023-03-05T07:46:28.240Z,7.10
2023-03-05T07:48:56.414Z,6.20
2023-03-05T07:51:25.830Z,7.60
2023-03-05T07:53:55.789Z,7.70
2023-03-05T07:56:32.001Z,5.80
2023-03-05T07:59:01.581Z,4.90
2023-03-05T08:01:34.023Z,4.30
2023-03-05T08:04:03.308Z,3.20
2023-03-05T08:06:31.776Z,2.90
2023-03-05T08:09:00.363Z,3.30
2023-03-05T08:11:28.853Z,4.30
2023-03-05T08:13:59.679Z,4.00
2023-03-05T08:16:28.010Z,3.00
2023-03-05T08:18:57.494Z,2.70
2023-03-05T08:21:33.647Z,3.30
2023-03-05T08:24:04.547Z,3.50
2023-03-05T08:26:35.790Z,5.30
2023-03-05T08:29:04.200Z,4.80
2023-03-05T08:31:32.960Z,4.20
2023-03-05T08:34:02.567Z,5.20
2023-03-05T08:36:30.726Z,3.90
2023-03-05T08:38:59.748Z,4.80
2023-03-05T08:41:28.005Z,6.30
2023-03-05T08:43:56.078Z,6.00
2023-03-05T08:46:24.623Z,4.10
2023-03-05T08:48:52.831Z,3.70
2023-03-05T08:51:25.967Z,4.20
2023-03-05T08:53:56.166Z,6.10
2023-03-05T08:56:26.347Z,5.30
2023-03-05T08:58:54.844Z,4.80
2023-03-05T09:01:24.125Z,4.70
2023-03-05T09:03:52.317Z,3.50
2023-03-05T09:06:20.313Z,3.00
2023-03-05T09:08:48.265Z,3.00
2023-03-05T09:11:16.481Z,3.50
2023-03-05T09:13:44.622Z,5.50
2023-03-05T09:16:15.892Z,3.80
2023-03-05T09:18:44.625Z,3.10
2023-03-05T09:21:16.290Z,3.90
2023-03-05T09:23:45.557Z,3.10
2023-03-05T09:26:16.629Z,3.30
2023-03-05T09:28:45.382Z,5.40
2023-03-05T09:31:13.639Z,3.10
2023-03-05T09:33:42.050Z,2.90
2023-03-05T09:36:25.905Z,2.70
2023-03-05T09:38:53.923Z,4.40
2023-03-05T09:42:00.247Z,3.70
2023-03-05T09:44:52.144Z,3.50
2023-03-05T09:48:10.049Z,4.40
2023-03-05T09:50:45.022Z,4.00
2023-03-05T09:53:25.790Z,4.40
2023-03-05T09:56:01.615Z,3.20
2023-03-05T09:58:48.491Z,2.40
2023-03-05T10:01:21.669Z,2.10
2023-03-05T10:04:08.321Z,2.20
2023-03-05T10:06:47.479Z,2.70
2023-03-05T10:09:25.920Z,3.70
2023-03-05T10:12:03.715Z,4.80
2023-03-05T10:14:38.577Z,5.70
2023-03-05T10:17:56.991Z,4.80
2023-03-05T10:20:27.980Z,4.90
2023-03-05T10:23:14.151Z,3.70
2023-03-05T10:26:19.297Z,3.30
2023-03-05T10:29:12.016Z,2.60
2023-03-05T10:32:06.779Z,3.90
2023-03-05T10:35:14.719Z,4.50
2023-03-05T10:38:14.258Z,3.20
2023-03-05T10:40:47.086Z,3.60
2023-03-05T10:43:37.916Z,4.30
2023-03-05T10:46:05.995Z,5.60
2023-03-05T10:48:58.908Z,3.70
2023-03-05T10:52:02.441Z,4.10
2023-03-05T10:54:33.300Z,4.70
2023-03-05T10:57:24.516Z,5.60
2023-03-05T11:00:14.307Z,5.00
2023-03-05T11:03:05.710Z,2.50
2023-03-05T11:05:39.892Z,3.60
2023-03-05T11:08:19.920Z,3.00
2023-03-05T11:10:48.185Z,2.60
2023-03-05T11:13:28.072Z,4.30
2023-03-05T11:16:01.064Z,6.60
2023-03-05T11:18:34.816Z,4.20
2023-03-05T11:21:19.883Z,4.00
2023-03-05T11:24:10.591Z,3.10
2023-03-05T11:26:50.209Z,2.00
2023-03-05T11:29:25.297Z,2.90
2023-03-05T11:31:53.912Z,2.80
2023-03-05T11:34:31.491Z,1.70
2023-03-05T11:37:04.057Z,2.20
2023-03-05T11:39:35.490Z,2.50
2023-03-05T11:42:25.454Z,2.30
2023-03-05T11:44:56.010Z,3.20
2023-03-05T11:47:37.569Z,4.00
2023-03-05T11:50:24.034Z,2.70
2023-03-05T11:52:57.387Z,2.20
2023-03-05T11:55:32.799Z,2.90
2023-03-05T11:58:26.921Z,2.70
2023-03-05T12:00:55.685Z,2.80
2023-03-05T12:03:33.234Z,2.80
2023-03-05T12:06:18.045Z,3.50
2023-03-05T12:08:51.063Z,3.00
2023-03-05T12:11:25.686Z,2.80
2023-03-05T12:14:09.640Z,2.30
2023-03-05T12:16:47.192Z,2.10
2023-03-05T12:19:34.609Z,3.00
2023-03-05T12:22:04.304Z,2.10
2023-03-05T12:24:33.920Z,3.40
2023-03-05T12:27:04.996Z,2.80
2023-03-05T12:29:32.962Z,2.30
2023-03-05T12:32:01.959Z,2.50
2023-03-05T12:34:42.937Z,2.50
2023-03-05T12:37:13.158Z,3.40
2023-03-05T12:39:49.726Z,4.00
2023-03-05T12:42:30.019Z,2.40
2023-03-05T12:45:10.399Z,2.50
2023-03-05T12:47:42.870Z,3.30
2023-03-05T12:50:33.009Z,3.60
2023-03-05T12:53:07.102Z,1.60
2023-03-05T12:55:56.593Z,2.40
2023-03-05T12:58:56.787Z,1.80
2023-03-05T13:01:31.859Z,3.50
2023-03-05T13:04:05.307Z,2.60
2023-03-05T13:06:35.589Z,2.00
2023-03-05T13:09:31.550Z,2.20
2023-03-05T13:11:59.964Z,3.10
2023-03-05T13:14:30.796Z,3.60
2023-03-05T13:16:59.785Z,3.10
2023-03-05T13:19:36.302Z,3.40
2023-03-05T13:22:11.606Z,2.00
2023-03-05T13:24:39.706Z,2.60
2023-03-05T13:27:31.194Z,2.50
2023-03-05T13:29:59.151Z,1.90
2023-03-05T13:32:32.966Z,3.30
2023-03-05T13:35:01.843Z,2.70
2023-03-05T13:37:37.140Z,3.10
2023-03-05T13:40:25.518Z,2.30
2023-03-05T13:42:53.894Z,2.50
2023-03-05T13:45:28.115Z,1.40
2023-03-05T13:48:02.146Z,2.30
2023-03-05T13:50:39.635Z,2.50
2023-03-05T13:53:15.726Z,3.20
2023-03-05T13:55:44.066Z,2.80
2023-03-05T13:58:48.226Z,2.60
2023-03-05T14:01:31.272Z,3.30
2023-03-05T14:04:07.883Z,2.00
2023-03-05T14:06:42.410Z,2.50
2023-03-05T14:09:19.248Z,1.50
2023-03-05T14:12:21.526Z,3.30
2023-03-05T14:14:50.054Z,2.70
2023-03-05T14:17:23.856Z,2.80
2023-03-05T14:19:52.522Z,4.30
2023-03-05T14:22:38.576Z,3.20
2023-03-05T14:25:25.654Z,2.70
2023-03-05T14:27:53.694Z,3.90
2023-03-05T14:30:24.808Z,3.10
2023-03-05T14:32:56.040Z,2.90
2023-03-05T14:35:26.807Z,3.40
2023-03-05T14:37:58.588Z,2.80
2023-03-05T14:40:32.068Z,3.40
2023-03-05T14:43:02.797Z,4.80
2023-03-05T14:45:40.157Z,3.00
2023-03-05T14:48:10.704Z,3.20
2023-03-05T14:50:42.068Z,4.00
2023-03-05T14:53:16.798Z,4.70
2023-03-05T14:55:56.693Z,3.50
2023-03-05T14:58:28.229Z,4.70
2023-03-05T15:00:57.113Z,5.10
2023-03-05T15:03:26.376Z,4.50
2023-03-05T15:05:59.613Z,5.00
2023-03-05T15:08:30.646Z,6.90
2023-03-05T15:10:59.891Z,3.50
2023-03-05T15:13:28.086Z,4.30
2023-03-05T15:15:56.502Z,3.10
2023-03-05T15:18:24.533Z,4.30
2023-03-05T15:20:53.206Z,3.20
2023-03-05T15:23:21.439Z,3.20
2023-03-05T15:25:50.005Z,5.00
2023-03-05T15:28:17.964Z,3.40
2023-03-05T15:30:47.761Z,4.60
2023-03-05T15:33:17.841Z,4.20
2023-03-05T15:35:46.305Z,4.60
2023-03-05T15:38:16.299Z,3.50
2023-03-05T15:40:45.187Z,3.70
2023-03-05T15:43:14.092Z,4.00
2023-03-05T15:45:42.214Z,7.30
2023-03-05T15:48:10.321Z,7.30
2023-03-05T15:50:42.783Z,7.50
2023-03-05T15:53:15.849Z,4.50
2023-03-05T15:55:45.260Z,5.10
2023-03-05T15:58:16.794Z,4.90
2023-03-05T16:00:46.107Z,4.10
2023-03-05T16:03:14.096Z,5.40
2023-03-05T16:05:43.005Z,5.80
2023-03-05T16:08:10.976Z,5.20
2023-03-05T16:10:41.101Z,4.40
2023-03-05T16:13:15.775Z,5.40
2023-03-05T16:15:44.477Z,5.60
2023-03-05T16:18:16.495Z,5.80
2023-03-05T16:20:45.440Z,5.50
2023-03-05T16:23:13.816Z,5.90
2023-03-05T16:25:41.879Z,7.00
2023-03-05T16:28:10.657Z,7.40
2023-03-05T16:30:40.021Z,7.00
2023-03-05T16:33:08.156Z,6.40
2023-03-05T16:35:36.274Z,7.90
2023-03-05T16:38:04.278Z,7.40
2023-03-05T16:41:02.947Z,7.70
2023-03-05T16:43:25.296Z,14.50
2023-03-05T16:45:53.257Z,16.20
2023-03-05T16:48:21.540Z,13.40
2023-03-05T16:50:49.579Z,19.80
2023-03-05T16:53:17.599Z,21.20
2023-03-05T16:55:45.711Z,21.60
2023-03-05T16:58:13.818Z,23.90
2023-03-05T17:00:41.910Z,25.30
2023-03-05T17:03:09.953Z,27.10
2023-03-05T17:05:38.679Z,22.60
2023-03-05T17:08:07.633Z,22.60
2023-03-05T17:10:35.619Z,21.80
2023-03-05T17:13:04.774Z,19.30
2023-03-05T17:15:33.646Z,19.80
2023-03-05T17:18:01.949Z,18.30
2023-03-05T17:20:30.342Z,16.90
2023-03-05T17:23:03.017Z,18.30
2023-03-05T17:25:30.970Z,21.20
2023-03-05T17:27:58.991Z,23.30
2023-03-05T17:30:27.096Z,36.60
2023-03-05T17:32:55.251Z,41.80
2023-03-05T17:35:23.553Z,30.80
2023-03-05T17:37:53.698Z,24.10
2023-03-05T17:40:23.339Z,27.50
2023-03-05T17:42:51.473Z,28.20
2023-03-05T17:45:19.484Z,27.60
2023-03-05T17:47:47.517Z,25.50
2023-03-05T17:50:15.682Z,30.30
2023-03-05T17:52:43.865Z,33.50
2023-03-05T17:55:15.792Z,30.20
2023-03-05T17:57:44.630Z,19.00
2023-03-05T18:00:22.938Z,15.90
2023-03-05T18:02:51.848Z,11.90
2023-03-05T18:05:23.117Z,12.30
2023-03-05T18:07:51.589Z,12.40
2023-03-05T18:10:21.773Z,10.20
2023-03-05T18:12:50.041Z,8.20
2023-03-05T18:15:21.278Z,8.40
2023-03-05T18:17:49.354Z,8.30
2023-03-05T18:20:36.083Z,9.60
2023-03-05T18:23:05.703Z,11.10
2023-03-05T18:25:34.579Z,12.70
2023-03-05T18:28:08.952Z,13.30
2023-03-05T18:30:38.096Z,10.40
2023-03-05T18:33:07.092Z,10.40
2023-03-05T18:35:35.227Z,10.90
2023-03-05T18:38:03.334Z,13.20
2023-03-05T18:40:36.006Z,14.30
2023-03-05T18:43:04.557Z,14.60
2023-03-05T18:45:34.292Z,15.10
2023-03-05T18:48:02.264Z,16.00
2023-03-05T18:50:30.615Z,15.50
2023-03-05T18:52:58.798Z,22.00
2023-03-05T18:55:30.141Z,25.50
2023-03-05T18:57:58.328Z,24.40
2023-03-05T19:00:28.888Z,29.80
2023-03-05T19:02:57.798Z,24.20
2023-03-05T19:05:27.043Z,23.50
2023-03-05T19:07:56.055Z,24.50
2023-03-05T19:10:24.512Z,21.90
2023-03-05T19:13:05.385Z,22.60
2023-03-05T19:15:33.667Z,23.20
2023-03-05T19:18:01.690Z,24.10
2023-03-05T19:20:29.686Z,22.20
2023-03-05T19:22:57.654Z,20.30
2023-03-05T19:25:25.723Z,21.70
2023-03-05T19:27:53.670Z,21.50
2023-03-05T19:30:21.730Z,20.60
2023-03-05T19:32:50.041Z,21.50
2023-03-05T19:35:18.365Z,25.40
2023-03-05T19:37:46.478Z,29.80
2023-03-05T19:40:14.989Z,32.80
2023-03-05T19:42:42.961Z,23.70
2023-03-05T19:45:11.048Z,25.80
2023-03-05T19:47:39.110Z,23.50
2023-03-05T19:50:08.027Z,25.80
2023-03-05T19:52:36.039Z,23.20
2023-03-05T19:55:04.774Z,23.40
2023-03-05T19:57:33.060Z,24.60
2023-03-05T20:00:01.135Z,21.30
2023-03-05T20:02:29.957Z,22.20
2023-03-05T20:04:58.031Z,21.70
2023-03-05T20:07:26.132Z,23.90
2023-03-05T20:09:55.588Z,26.10
2023-03-05T20:12:23.988Z,20.80
2023-03-05T20:14:51.916Z,20.20
2023-03-05T20:17:20.396Z,16.30
2023-03-05T20:19:48.356Z,20.90
2023-03-05T20:22:16.352Z,18.00
2023-03-05T20:24:44.325Z,17.00
2023-03-05T20:27:12.273Z,20.70
2023-03-05T20:29:40.366Z,17.90
2023-03-05T20:32:08.611Z,18.30
2023-03-05T20:34:36.630Z,17.00
2023-03-05T20:37:05.813Z,15.70
2023-03-05T20:39:33.839Z,14.40
2023-03-05T20:42:01.951Z,12.80
2023-03-05T20:44:30.003Z,13.30
2023-03-05T20:47:12.736Z,14.20
2023-03-05T20:49:40.712Z,13.90
2023-03-05T20:52:08.786Z,13.80
2023-03-05T20:54:37.021Z,13.50
2023-03-05T20:57:05.201Z,11.60
2023-03-05T20:59:33.205Z,13.40
2023-03-05T21:02:01.294Z,11.30
2023-03-05T21:04:29.435Z,11.30
2023-03-05T21:06:57.402Z,10.90
2023-03-05T21:09:25.461Z,11.90
2023-03-05T21:11:53.433Z,10.40
2023-03-05T21:14:21.485Z,9.60
2023-03-05T21:16:49.612Z,9.60
2023-03-05T21:19:17.576Z,10.70
2023-03-05T21:21:45.954Z,9.50
2023-03-05T21:24:16.620Z,10.00
2023-03-05T21:26:44.603Z,11.70
2023-03-05T21:29:12.604Z,9.20
2023-03-05T21:31:40.699Z,10.50
2023-03-05T21:34:08.848Z,11.30
2023-03-05T21:36:36.909Z,11.60
2023-03-05T21:39:04.988Z,12.70
2023-03-05T21:41:33.064Z,13.30
2023-03-05T21:44:04.133Z,12.00
2023-03-05T21:46:32.273Z,12.50
2023-03-05T21:49:00.550Z,13.70
2023-03-05T21:51:38.658Z,11.40
2023-03-05T21:54:07.725Z,11.80
2023-03-05T21:56:35.724Z,11.40
2023-03-05T21:59:03.780Z,12.50
2023-03-05T22:01:31.841Z,11.50
2023-03-05T22:03:59.993Z,11.00
2023-03-05T22:06:28.197Z,9.40
2023-03-05T22:08:56.999Z,9.70
2023-03-05T22:11:24.991Z,8.70
2023-03-05T22:13:53.044Z,9.90
2023-03-05T22:16:23.673Z,10.60
2023-03-05T22:18:52.392Z,11.40
2023-03-05T22:21:23.137Z,13.50
2023-03-05T22:23:51.241Z,11.30
2023-03-05T22:26:19.217Z,11.80
2023-03-05T22:28:47.155Z,11.90
2023-03-05T22:31:26.183Z,11.50
2023-03-05T22:33:54.201Z,15.30
2023-03-05T22:36:23.419Z,12.60
2023-03-05T22:38:52.160Z,13.30
2023-03-05T22:41:21.174Z,14.40
2023-03-05T22:43:50.457Z,16.70
2023-03-05T22:46:25.539Z,14.90
2023-03-05T22:48:54.213Z,19.50
2023-03-05T22:51:22.586Z,21.10
2023-03-05T22:53:51.092Z,17.60
2023-03-05T22:56:20.817Z,17.20
2023-03-05T22:58:49.135Z,17.50
2023-03-05T23:01:23.371Z,18.10
2023-03-05T23:03:57.508Z,14.40
2023-03-05T23:06:25.568Z,12.90
2023-03-05T23:08:53.589Z,13.80
2023-03-05T23:11:21.886Z,12.40
2023-03-05T23:13:49.940Z,13.40
2023-03-05T23:16:18.045Z,12.30
2023-03-05T23:18:46.059Z,22.70
2023-03-05T23:21:14.042Z,29.50
2023-03-05T23:23:42.114Z,28.50
2023-03-05T23:26:10.084Z,27.80
2023-03-05T23:28:38.053Z,24.80
2023-03-05T23:31:06.074Z,22.60
2023-03-05T23:33:34.096Z,21.50
2023-03-05T23:36:02.127Z,21.70
2023-03-05T23:38:30.704Z,18.60
2023-03-05T23:41:01.187Z,15.20
2023-03-05T23:43:30.771Z,13.70
2023-03-05T23:46:00.548Z,13.90
2023-03-05T23:48:29.764Z,14.90
2023-03-05T23:50:58.058Z,13.80
2023-03-05T23:53:29.216Z,11.90
2023-03-05T23:55:57.580Z,11.60
2023-03-05T23:58:25.962Z,10.90
